Terminal Aerodrome Forecast
Issued by NWS

Home | Current Version | Previous Version | Text Only | Print | Product List | Glossary On
Versions: 1 2 3 4 5 6 7 8 9 10 11 12 13 14 15 16
066
FTUS43 KGRR 082340
TAFMKG
TAF
KMKG 082340Z 0900/0924 32007KT P6SM -SHSN BKN015
      TEMPO 0900/0904 3SM -SHSN BKN009
     FM090400 33007KT 4SM -SHSN BKN015
     FM091600 33015G22KT 3SM -SHSN BKN025=

USA.gov is the U.S. government's official web portal to all federal, state and local government web resources and services.